KLUF/LUF METAR and TAF weather

Enter ICAO airport designator
Station Type Date Time Source
KLUF METAR 2023/01/30 11:15 UTC NOAA

KLUF 301115Z AUTO 05003KT 10SM BKN034 08/03 A2994 RMK AO2 SLP137 $


Station Type Date Time Source
KLUF Decoded METAR 2023/01/30 11:15 UTC NOAA

Luke Air Force Base / Phoenix, AZ, United States (KLUF) 33-32N 112-23W 332M
Jan 30, 2023 - 06:15 AM EST / 2023.01.30 1115 UTC
Wind: from the NE (050 degrees) at 3 MPH (3 KT):0
Visibility: 10 mile(s):0
Sky conditions: mostly cloudy
Temperature: 46 F (8 C)
Dew Point: 37 F (3 C)
Relative Humidity: 70%
Pressure (altimeter): 29.94 in. Hg (1013 hPa)
ob: KLUF 301115Z AUTO 05003KT 10SM BKN034 08/03 A2994 RMK AO2 SLP137
cycle: 11

Station Type Date Time Source
KLUF TAF 2023/01/27 20:06 UTC NOAA

TAF KLUF 272000Z 2720/2902 VRB06KT 9999 SKC QNH2990INS TX15/2723Z TN02/2813Z LAST NO
AMDS AFT 2722 NEXT 3012

Example: see airport list